Portada
METAR-TAF:

METAR-TAF

Aeroports :

Cranwell, Anglaterra

latitud: 53-02N, longitud: 000-30W, altitud: 67 m

Observació

L'informe es va fer fa 26 minuts, a les 19:50 UTC
Vent 1 kt del Nord
Temperatura 19°C
Humitat 73%
Pressió 1017 hPa
Visibilitat: 9000 m

METAR: EGYD 241950Z AUTO 35001KT 9000 // FEW220/// 19/14 Q1017

Hora: 21:16 (20:16 UTC)


TAF: manca

Observacions i pronòstics meteorològics de més de 4000 aeroports (METAR i TAF).

Les estacions disponibles són els punts grocs i vermells al mapa.

Posi el ratolí al punt desitjat per veure el nom de l'estació.

Feu clic per veure les observacions i els pronòstics meteorològics.

Per canviar el mapa: feu clic els botons verds amb una creu de color negre per apropar; al botó verd amb un guió per allunyar la imatge; o en les fletxes verdes per a mapes adjacents.


METAR-TAF: